createdAt,value
2023-04-08T00:01:05.109Z,22.27
2023-04-08T00:03:32.713Z,21.83
2023-04-08T00:06:01.076Z,24.52
2023-04-08T00:08:28.412Z,21.80
2023-04-08T00:10:55.553Z,23.40
2023-04-08T00:13:22.786Z,20.98
2023-04-08T00:15:49.916Z,19.83
2023-04-08T00:18:17.647Z,21.40
2023-04-08T00:20:45.161Z,21.98
2023-04-08T00:23:12.339Z,21.40
2023-04-08T00:25:39.466Z,20.33
2023-04-08T00:28:06.818Z,19.58
2023-04-08T00:30:34.141Z,18.10
2023-04-08T00:33:02.082Z,17.83
2023-04-08T00:35:29.518Z,20.23
2023-04-08T00:37:56.761Z,20.25
2023-04-08T00:40:23.894Z,20.85
2023-04-08T00:42:51.540Z,20.13
2023-04-08T00:45:18.690Z,20.48
2023-04-08T00:47:47.278Z,17.85
2023-04-08T00:50:14.623Z,18.75
2023-04-08T00:52:41.714Z,19.73
2023-04-08T00:55:08.859Z,19.58
2023-04-08T00:57:36.934Z,18.55
2023-04-08T01:00:06.735Z,20.83
2023-04-08T01:02:51.912Z,19.45
2023-04-08T01:05:47.602Z,18.70
2023-04-08T01:08:16.459Z,18.35
2023-04-08T01:10:48.235Z,18.30
2023-04-08T01:13:19.220Z,21.90
2023-04-08T01:15:47.234Z,18.45
2023-04-08T01:18:16.220Z,21.08
2023-04-08T01:20:45.823Z,18.25
2023-04-08T01:23:41.383Z,20.58
2023-04-08T01:26:10.179Z,20.60
2023-04-08T01:28:38.516Z,18.27
2023-04-08T01:31:06.616Z,20.38
2023-04-08T01:33:35.739Z,17.55
2023-04-08T01:36:04.826Z,18.92
2023-04-08T01:38:33.803Z,20.65
2023-04-08T01:41:01.430Z,20.00
2023-04-08T01:43:30.343Z,16.90
2023-04-08T01:45:58.732Z,18.13
2023-04-08T01:48:27.278Z,18.25
2023-04-08T01:50:56.640Z,18.90
2023-04-08T01:53:24.152Z,16.90
2023-04-08T01:55:58.436Z,17.17
2023-04-08T01:58:28.337Z,16.85
2023-04-08T02:00:56.930Z,17.98
2023-04-08T02:03:25.854Z,22.88
2023-04-08T02:05:53.101Z,18.00
2023-04-08T02:08:20.228Z,17.75
2023-04-08T02:10:47.387Z,20.90
2023-04-08T02:13:14.635Z,19.27
2023-04-08T02:15:46.904Z,17.20
2023-04-08T02:18:17.390Z,22.27
2023-04-08T02:20:51.634Z,20.80
2023-04-08T02:23:25.297Z,17.80
2023-04-08T02:25:56.023Z,16.70
2023-04-08T02:28:26.423Z,16.35
2023-04-08T02:30:54.913Z,16.15
2023-04-08T02:33:23.272Z,19.88
2023-04-08T02:35:55.047Z,19.02
2023-04-08T02:38:24.361Z,17.88
2023-04-08T02:40:51.755Z,16.90
2023-04-08T02:43:19.027Z,20.38
2023-04-08T02:45:46.666Z,18.98
2023-04-08T02:48:13.858Z,15.40
2023-04-08T02:50:41.582Z,17.75
2023-04-08T02:53:10.129Z,17.23
2023-04-08T02:55:38.152Z,21.25
2023-04-08T02:58:05.379Z,19.67
2023-04-08T03:00:32.562Z,21.50
2023-04-08T03:03:00.153Z,20.10
2023-04-08T03:05:27.807Z,26.38
2023-04-08T03:07:55.189Z,20.73
2023-04-08T03:10:22.328Z,21.63
2023-04-08T03:12:49.590Z,21.77
2023-04-08T03:15:16.904Z,20.52
2023-04-08T03:17:44.018Z,21.30
2023-04-08T03:20:11.591Z,21.02
2023-04-08T03:22:38.753Z,25.08
2023-04-08T03:25:06.867Z,21.00
2023-04-08T03:27:33.944Z,20.60
2023-04-08T03:30:01.133Z,19.45
2023-04-08T03:32:28.572Z,19.10
2023-04-08T03:34:56.040Z,20.20
2023-04-08T03:37:23.416Z,25.52
2023-04-08T03:39:50.579Z,20.70
2023-04-08T03:42:18.374Z,21.27
2023-04-08T03:44:45.610Z,21.42
2023-04-08T03:47:12.825Z,24.60
2023-04-08T03:49:39.950Z,23.45
2023-04-08T03:52:07.542Z,21.90
2023-04-08T03:54:34.650Z,24.08
2023-04-08T03:57:01.940Z,22.33
2023-04-08T03:59:29.088Z,22.33
2023-04-08T04:01:56.777Z,23.00
2023-04-08T04:04:24.883Z,23.10
2023-04-08T04:06:52.402Z,22.02
2023-04-08T04:09:19.502Z,21.90
2023-04-08T04:11:46.776Z,24.02
2023-04-08T04:14:14.078Z,24.65
2023-04-08T04:16:41.292Z,24.60
2023-04-08T04:19:08.691Z,22.30
2023-04-08T04:21:36.163Z,22.83
2023-04-08T04:24:03.344Z,25.20
2023-04-08T04:26:30.613Z,26.08
2023-04-08T04:28:57.793Z,25.85
2023-04-08T04:31:26.799Z,25.05
2023-04-08T04:33:54.775Z,26.27
2023-04-08T04:36:21.988Z,24.27
2023-04-08T04:38:51.904Z,24.83
2023-04-08T04:41:19.405Z,24.55
2023-04-08T04:43:46.770Z,27.30
2023-04-08T04:46:13.893Z,28.15
2023-04-08T04:48:41.249Z,29.27
2023-04-08T04:51:08.918Z,28.35
2023-04-08T04:53:36.118Z,27.88
2023-04-08T04:56:03.412Z,28.77
2023-04-08T04:58:31.142Z,30.73
2023-04-08T05:00:58.359Z,30.05
2023-04-08T05:03:25.705Z,32.13
2023-04-08T05:05:54.410Z,31.92
2023-04-08T05:08:22.279Z,30.48
2023-04-08T05:10:52.642Z,27.83
2023-04-08T05:13:19.781Z,32.63
2023-04-08T05:15:47.009Z,28.52
2023-04-08T05:18:14.340Z,28.42
2023-04-08T05:20:41.505Z,27.33
2023-04-08T05:23:10.754Z,28.58
2023-04-08T05:25:37.880Z,30.58
2023-04-08T05:28:05.197Z,27.30
2023-04-08T05:30:32.317Z,26.85
2023-04-08T05:33:00.915Z,30.58
2023-04-08T05:35:29.463Z,30.23
2023-04-08T05:37:56.679Z,24.92
2023-04-08T05:40:24.308Z,29.15
2023-04-08T05:42:51.443Z,27.73
2023-04-08T05:45:18.684Z,27.38
2023-04-08T05:47:45.884Z,25.33
2023-04-08T05:50:13.142Z,27.48
2023-04-08T05:52:47.573Z,28.98
2023-04-08T05:55:15.232Z,27.02
2023-04-08T05:57:42.402Z,27.05
2023-04-08T06:00:10.913Z,27.17
2023-04-08T06:02:38.925Z,26.63
2023-04-08T06:05:06.994Z,28.75
2023-04-08T06:07:34.789Z,29.50
2023-04-08T06:10:02.809Z,27.70
2023-04-08T06:12:30.496Z,28.52
2023-04-08T06:14:57.736Z,26.77
2023-04-08T06:17:25.559Z,27.83
2023-04-08T06:19:52.812Z,29.33
2023-04-08T06:22:19.989Z,26.90
2023-04-08T06:24:48.574Z,26.85
2023-04-08T06:27:16.547Z,26.08
2023-04-08T06:29:43.709Z,25.58
2023-04-08T06:32:11.890Z,24.05
2023-04-08T06:34:39.325Z,23.95
2023-04-08T06:37:06.692Z,22.20
2023-04-08T06:39:34.670Z,24.73
2023-04-08T06:42:01.927Z,23.33
2023-04-08T06:44:29.060Z,22.30
2023-04-08T06:46:56.332Z,24.90
2023-04-08T06:49:23.728Z,24.27
2023-04-08T06:51:51.356Z,21.83
2023-04-08T06:54:18.666Z,17.92
2023-04-08T06:56:47.533Z,23.92
2023-04-08T06:59:14.675Z,21.30
2023-04-08T07:01:42.217Z,24.48
2023-04-08T07:04:09.415Z,33.22
2023-04-08T07:06:36.618Z,33.22
2023-04-08T07:09:04.927Z,26.88
2023-04-08T07:11:32.164Z,22.73
2023-04-08T07:13:59.303Z,22.23
2023-04-08T07:16:26.497Z,24.60
2023-04-08T07:18:54.084Z,22.58
2023-04-08T07:21:21.344Z,23.00
2023-04-08T07:23:48.503Z,26.58
2023-04-08T07:26:15.981Z,22.77
2023-04-08T07:28:43.322Z,28.13
2023-04-08T07:31:18.725Z,31.20
2023-04-08T07:33:46.683Z,26.77
2023-04-08T07:36:15.911Z,29.85
2023-04-08T07:38:43.203Z,27.23
2023-04-08T07:41:10.682Z,27.08
2023-04-08T07:43:37.937Z,27.13
2023-04-08T07:46:06.736Z,26.17
2023-04-08T07:48:35.454Z,29.95
2023-04-08T07:51:09.629Z,27.63
2023-04-08T07:53:39.007Z,27.27
2023-04-08T07:56:12.985Z,26.77
2023-04-08T07:58:43.361Z,25.90
2023-04-08T08:01:24.561Z,27.88
2023-04-08T08:03:54.197Z,27.88
2023-04-08T08:06:22.406Z,28.92
2023-04-08T08:08:49.665Z,28.88
2023-04-08T08:11:16.819Z,27.23
2023-04-08T08:13:44.378Z,30.92
2023-04-08T08:16:12.228Z,28.60
2023-04-08T08:18:41.196Z,34.15
2023-04-08T08:21:09.623Z,30.60
2023-04-08T08:23:38.054Z,30.48
2023-04-08T08:26:12.901Z,36.10
2023-04-08T08:28:41.631Z,30.20
2023-04-08T08:31:09.054Z,34.78
2023-04-08T08:33:36.545Z,28.48
2023-04-08T08:36:05.787Z,32.65
2023-04-08T08:38:33.190Z,34.13
2023-04-08T08:41:01.962Z,28.75
2023-04-08T08:43:30.066Z,32.83
2023-04-08T08:45:57.407Z,34.75
2023-04-08T08:48:24.618Z,30.38
2023-04-08T08:50:52.186Z,31.27
2023-04-08T08:53:20.944Z,29.98
2023-04-08T08:58:19.346Z,29.98
2023-04-08T09:00:46.630Z,31.73
2023-04-08T09:03:25.248Z,31.67
2023-04-08T09:05:57.031Z,25.70
2023-04-08T09:08:34.368Z,31.48
2023-04-08T09:11:18.642Z,24.85
2023-04-08T09:13:47.054Z,26.90
2023-04-08T09:16:16.969Z,28.63
2023-04-08T09:18:49.563Z,24.65
2023-04-08T09:21:18.839Z,30.25
2023-04-08T09:23:51.472Z,26.20
2023-04-08T09:26:24.630Z,29.30
2023-04-08T09:29:25.112Z,28.20
2023-04-08T09:31:58.120Z,26.30
2023-04-08T09:34:27.674Z,26.40
2023-04-08T09:36:56.194Z,26.98
2023-04-08T09:39:23.908Z,26.63
2023-04-08T09:41:53.224Z,24.17
2023-04-08T09:44:22.187Z,26.63
2023-04-08T09:47:02.466Z,24.13
2023-04-08T09:49:45.103Z,26.92
2023-04-08T09:52:25.158Z,27.48
2023-04-08T09:55:05.026Z,23.73
2023-04-08T09:57:43.125Z,23.33
2023-04-08T10:00:17.899Z,24.98
2023-04-08T10:02:59.866Z,23.92
2023-04-08T10:05:28.420Z,28.45
2023-04-08T10:07:57.104Z,28.45
2023-04-08T10:10:24.778Z,23.10
2023-04-08T10:12:52.274Z,23.70
2023-04-08T10:15:26.491Z,25.50
2023-04-08T10:18:20.853Z,25.20
2023-04-08T10:20:49.614Z,24.33
2023-04-08T10:23:18.837Z,26.10
2023-04-08T10:25:50.442Z,24.55
2023-04-08T10:28:20.539Z,22.40
2023-04-08T10:30:52.320Z,22.10
2023-04-08T10:33:24.996Z,21.65
2023-04-08T10:35:59.947Z,22.30
2023-04-08T10:38:27.791Z,25.65
2023-04-08T10:40:56.168Z,22.10
2023-04-08T10:43:24.395Z,22.27
2023-04-08T10:45:54.113Z,20.27
2023-04-08T10:48:25.128Z,24.02
2023-04-08T10:51:05.938Z,20.30
2023-04-08T10:53:38.449Z,20.23
2023-04-08T10:56:17.969Z,23.25
2023-04-08T10:58:50.260Z,24.58
2023-04-08T11:01:18.006Z,25.95
2023-04-08T11:03:46.220Z,23.50
2023-04-08T11:06:13.834Z,21.23
2023-04-08T11:08:42.119Z,21.25
2023-04-08T11:11:11.227Z,20.92
2023-04-08T11:13:51.061Z,21.95
2023-04-08T11:16:22.119Z,22.70
2023-04-08T11:18:52.153Z,24.83
2023-04-08T11:21:19.465Z,25.42
2023-04-08T11:23:50.521Z,30.25
2023-04-08T11:26:19.402Z,25.35
2023-04-08T11:28:49.454Z,23.50
2023-04-08T11:31:17.112Z,22.27
2023-04-08T11:33:55.205Z,23.52
2023-04-08T11:36:22.710Z,23.65
2023-04-08T11:38:50.712Z,21.90
2023-04-08T11:41:18.386Z,23.75
2023-04-08T11:43:53.544Z,22.85
2023-04-08T11:46:21.074Z,25.50
2023-04-08T11:49:05.673Z,28.48
2023-04-08T11:51:35.163Z,25.90
2023-04-08T11:54:09.645Z,28.10
2023-04-08T11:56:49.536Z,25.75
2023-04-08T11:59:16.884Z,26.98
2023-04-08T12:01:44.189Z,28.98
2023-04-08T12:04:12.057Z,27.70
2023-04-08T12:06:39.508Z,31.20
2023-04-08T12:09:07.174Z,23.35
2023-04-08T12:11:34.399Z,24.40
2023-04-08T12:14:01.530Z,35.80
2023-04-08T12:16:28.730Z,26.75
2023-04-08T12:18:56.521Z,25.98
2023-04-08T12:21:23.714Z,25.02
2023-04-08T12:23:51.219Z,27.05
2023-04-08T12:26:20.239Z,25.88
2023-04-08T12:28:47.598Z,35.50
2023-04-08T12:31:14.766Z,26.00
2023-04-08T12:33:41.857Z,24.83
2023-04-08T12:36:09.643Z,28.20
2023-04-08T12:38:38.765Z,24.17
2023-04-08T12:41:06.906Z,21.65
2023-04-08T12:43:34.764Z,21.98
2023-04-08T12:46:03.539Z,22.00
2023-04-08T12:48:30.786Z,21.45
2023-04-08T12:50:59.004Z,24.85
2023-04-08T12:53:26.202Z,27.45
2023-04-08T12:55:57.281Z,27.17
2023-04-08T12:58:25.934Z,25.85
2023-04-08T13:00:53.141Z,21.75
2023-04-08T13:03:20.739Z,20.65
2023-04-08T13:05:49.017Z,21.90
2023-04-08T13:08:17.055Z,25.35
2023-04-08T13:10:44.224Z,27.67
2023-04-08T13:13:14.478Z,27.40
2023-04-08T13:15:41.894Z,28.27
2023-04-08T13:18:09.225Z,29.10
2023-04-08T13:20:36.918Z,32.38
2023-04-08T13:23:04.171Z,39.75
2023-04-08T13:25:31.667Z,32.72
2023-04-08T13:27:58.824Z,28.25
2023-04-08T13:30:26.208Z,28.05
2023-04-08T13:32:53.356Z,27.77
2023-04-08T13:35:20.697Z,29.27
2023-04-08T13:37:47.849Z,27.35
2023-04-08T13:40:15.048Z,35.80
2023-04-08T13:42:42.178Z,26.52
2023-04-08T13:45:10.282Z,25.75
2023-04-08T13:47:38.099Z,28.25
2023-04-08T13:50:07.222Z,27.05
2023-04-08T13:52:34.844Z,24.98
2023-04-08T13:55:02.472Z,29.27
2023-04-08T13:57:29.742Z,27.48
2023-04-08T13:59:56.947Z,26.92
2023-04-08T14:02:24.989Z,32.15
2023-04-08T14:04:53.012Z,32.15
2023-04-08T14:07:20.357Z,30.70
2023-04-08T14:09:47.700Z,39.22
2023-04-08T14:12:15.153Z,36.00
2023-04-08T14:14:42.222Z,34.28
2023-04-08T14:17:09.502Z,36.38
2023-04-08T14:19:37.012Z,33.50
2023-04-08T14:22:04.289Z,34.65
2023-04-08T14:24:31.489Z,29.60
2023-04-08T14:26:58.551Z,27.85
2023-04-08T14:29:27.286Z,27.33
2023-04-08T14:31:55.007Z,30.08
2023-04-08T14:34:22.429Z,25.80
2023-04-08T14:36:49.649Z,29.48
2023-04-08T14:39:16.824Z,24.02
2023-04-08T14:41:44.074Z,20.48
2023-04-08T14:44:11.203Z,23.02
2023-04-08T14:46:38.592Z,26.75
2023-04-08T14:49:07.251Z,21.77
2023-04-08T14:51:34.619Z,64.53
2023-04-08T14:54:02.325Z,34.85
2023-04-08T14:56:29.646Z,21.88
2023-04-08T14:58:56.778Z,22.83
2023-04-08T15:01:23.986Z,24.40
2023-04-08T15:03:51.225Z,22.88
2023-04-08T15:06:18.897Z,24.15
2023-04-08T15:08:46.044Z,25.13
2023-04-08T15:11:13.391Z,21.73
2023-04-08T15:13:40.909Z,23.10
2023-04-08T15:16:08.128Z,22.38
2023-04-08T15:18:36.362Z,24.92
2023-04-08T15:21:03.818Z,31.33
2023-04-08T15:23:31.175Z,42.95
2023-04-08T15:25:59.595Z,21.40
2023-04-08T15:28:27.540Z,25.15
2023-04-08T15:30:55.244Z,33.10
2023-04-08T15:33:22.423Z,21.05
2023-04-08T15:35:49.859Z,20.50
2023-04-08T15:38:17.942Z,20.50
2023-04-08T15:40:47.475Z,21.45
2023-04-08T15:43:16.267Z,21.50
2023-04-08T15:45:47.081Z,21.95
2023-04-08T15:48:14.696Z,24.95
2023-04-08T15:50:42.272Z,23.13
2023-04-08T15:53:09.534Z,21.13
2023-04-08T15:55:41.160Z,21.75
2023-04-08T15:58:08.588Z,26.23
2023-04-08T16:00:35.940Z,27.13
2023-04-08T16:03:03.544Z,23.67
2023-04-08T16:05:31.388Z,22.60
2023-04-08T16:07:58.581Z,22.42
2023-04-08T16:10:26.514Z,22.90
2023-04-08T16:12:53.888Z,19.95
2023-04-08T16:15:21.054Z,16.88
2023-04-08T16:17:53.048Z,16.60
2023-04-08T16:20:21.502Z,15.90
2023-04-08T16:22:50.402Z,11.50
2023-04-08T16:25:17.837Z,11.48
2023-04-08T16:27:45.151Z,11.63
2023-04-08T16:30:12.816Z,10.93
2023-04-08T16:32:40.552Z,11.25
2023-04-08T16:35:08.085Z,13.50
2023-04-08T16:37:35.453Z,10.70
2023-04-08T16:40:04.099Z,12.23
2023-04-08T16:42:31.607Z,8.65
2023-04-08T16:44:59.925Z,8.23
2023-04-08T16:47:27.878Z,10.27
2023-04-08T16:49:55.298Z,8.40
2023-04-08T16:52:22.427Z,7.90
2023-04-08T16:54:49.606Z,7.65
2023-04-08T16:57:17.002Z,7.53
2023-04-08T16:59:44.720Z,8.02
2023-04-08T17:02:12.290Z,7.53
2023-04-08T17:04:40.942Z,8.52
2023-04-08T17:07:09.114Z,6.97
2023-04-08T17:09:37.838Z,6.70
2023-04-08T17:12:05.995Z,6.43
2023-04-08T17:14:37.414Z,6.93
2023-04-08T17:17:04.843Z,6.75
2023-04-08T17:19:32.750Z,7.03
2023-04-08T17:22:00.032Z,10.77
2023-04-08T17:24:27.318Z,57.10
2023-04-08T17:26:54.983Z,9.48
2023-04-08T17:29:22.450Z,9.05
2023-04-08T17:31:49.966Z,9.27
2023-04-08T17:34:17.505Z,8.98
2023-04-08T17:36:47.476Z,9.15
2023-04-08T17:39:15.229Z,9.50
2023-04-08T17:41:44.065Z,11.45
2023-04-08T17:44:12.960Z,10.77
2023-04-08T17:46:40.172Z,9.43
2023-04-08T17:49:07.566Z,11.40
2023-04-08T17:51:34.826Z,11.60
2023-04-08T17:54:01.952Z,11.35
2023-04-08T17:56:29.310Z,12.95
2023-04-08T17:58:56.578Z,12.65
2023-04-08T18:01:24.082Z,13.02
2023-04-08T18:03:52.178Z,15.00
2023-04-08T18:06:20.406Z,13.35
2023-04-08T18:08:47.620Z,12.65
2023-04-08T18:11:15.055Z,13.27
2023-04-08T18:13:42.449Z,12.23
2023-04-08T18:16:17.816Z,12.88
2023-04-08T18:18:45.281Z,13.82
2023-04-08T18:21:12.741Z,14.70
2023-04-08T18:23:40.212Z,13.07
2023-04-08T18:26:07.472Z,14.20
2023-04-08T18:28:34.786Z,13.60
2023-04-08T18:31:01.979Z,12.80
2023-04-08T18:33:29.689Z,13.02
2023-04-08T18:35:59.573Z,13.43
2023-04-08T18:38:26.948Z,14.65
2023-04-08T18:40:54.655Z,13.85
2023-04-08T18:43:23.395Z,14.32
2023-04-08T18:45:50.689Z,14.52
2023-04-08T18:48:18.073Z,12.98
2023-04-08T18:50:46.113Z,13.85
2023-04-08T18:53:13.245Z,12.57
2023-04-08T18:55:42.225Z,16.25
2023-04-08T18:58:09.495Z,13.27
2023-04-08T19:00:41.556Z,14.63
2023-04-08T19:03:10.262Z,12.98
2023-04-08T19:05:38.349Z,64.28
2023-04-08T19:08:06.720Z,88.65
2023-04-08T19:10:34.822Z,16.38
2023-04-08T19:13:02.672Z,13.07
2023-04-08T19:15:30.485Z,12.65
2023-04-08T19:17:59.252Z,13.55
2023-04-08T19:20:27.561Z,14.40
2023-04-08T19:22:55.912Z,12.77
2023-04-08T19:25:23.424Z,16.63
2023-04-08T19:27:51.480Z,16.17
2023-04-08T19:30:19.061Z,16.63
2023-04-08T19:32:47.252Z,20.70
2023-04-08T19:35:14.920Z,17.40
2023-04-08T19:37:42.677Z,14.32
2023-04-08T19:40:15.343Z,15.10
2023-04-08T19:42:44.435Z,17.48
2023-04-08T19:45:12.039Z,15.90
2023-04-08T19:47:43.387Z,16.83
2023-04-08T19:50:13.683Z,13.55
2023-04-08T19:52:41.151Z,15.98
2023-04-08T19:55:10.388Z,14.80
2023-04-08T19:57:38.250Z,18.33
2023-04-08T20:00:05.885Z,20.73
2023-04-08T20:02:33.437Z,18.40
2023-04-08T20:05:02.254Z,18.80
2023-04-08T20:07:29.593Z,19.80
2023-04-08T20:09:56.887Z,20.77
2023-04-08T20:12:23.993Z,23.65
2023-04-08T20:14:51.395Z,19.90
2023-04-08T20:17:20.276Z,20.67
2023-04-08T20:19:47.638Z,18.42
2023-04-08T20:22:14.832Z,16.98
2023-04-08T20:24:42.739Z,22.33
2023-04-08T20:27:10.234Z,21.35
2023-04-08T20:29:37.641Z,18.83
2023-04-08T20:32:05.252Z,20.45
2023-04-08T20:34:32.603Z,18.27
2023-04-08T20:36:59.958Z,20.55
2023-04-08T20:39:31.295Z,18.30
2023-04-08T20:41:59.345Z,19.02
2023-04-08T20:44:27.404Z,22.60
2023-04-08T20:46:55.054Z,20.88
2023-04-08T20:49:22.662Z,24.20
2023-04-08T20:51:50.170Z,23.27
2023-04-08T20:54:17.518Z,21.90
2023-04-08T20:56:45.770Z,18.10
2023-04-08T20:59:12.866Z,20.40
2023-04-08T21:01:40.121Z,21.35
2023-04-08T21:04:07.368Z,49.67
2023-04-08T21:06:35.058Z,20.25
2023-04-08T21:09:02.445Z,16.17
2023-04-08T21:11:29.911Z,16.38
2023-04-08T21:13:57.210Z,16.73
2023-04-08T21:16:24.403Z,17.10
2023-04-08T21:18:52.292Z,16.33
2023-04-08T21:21:19.748Z,17.50
2023-04-08T21:23:46.853Z,16.75
2023-04-08T21:26:14.191Z,17.63
2023-04-08T21:28:41.452Z,17.67
2023-04-08T21:31:10.375Z,16.23
2023-04-08T21:33:37.780Z,19.33
2023-04-08T21:36:07.133Z,17.90
2023-04-08T21:38:34.989Z,16.77
2023-04-08T21:41:02.147Z,16.00
2023-04-08T21:43:29.261Z,25.25
2023-04-08T21:45:56.494Z,77.82
2023-04-08T21:48:23.853Z,55.70
2023-04-08T21:50:51.013Z,22.30
2023-04-08T21:53:18.154Z,20.60
2023-04-08T21:55:45.199Z,20.98
2023-04-08T21:58:12.641Z,24.10
2023-04-08T22:00:39.878Z,22.88
2023-04-08T22:03:07.751Z,22.23
2023-04-08T22:05:35.084Z,31.48
2023-04-08T22:08:02.454Z,29.63
2023-04-08T22:10:29.740Z,27.25
2023-04-08T22:12:56.868Z,25.38
2023-04-08T22:15:24.206Z,23.92
2023-04-08T22:17:51.523Z,25.10
2023-04-08T22:20:18.702Z,26.30
2023-04-08T22:22:46.129Z,21.85
2023-04-08T22:25:13.520Z,21.60
2023-04-08T22:27:40.891Z,22.85
2023-04-08T22:30:08.939Z,21.52
2023-04-08T22:32:36.171Z,20.45
2023-04-08T22:35:03.516Z,21.95
2023-04-08T22:37:32.351Z,22.00
2023-04-08T22:40:04.070Z,19.60
2023-04-08T22:42:31.380Z,20.17
2023-04-08T22:44:58.530Z,19.73
2023-04-08T22:47:25.658Z,20.52
2023-04-08T22:49:52.789Z,21.55
2023-04-08T22:52:19.922Z,22.95
2023-04-08T22:54:47.989Z,21.15
2023-04-08T22:57:15.141Z,19.98
2023-04-08T22:59:42.252Z,21.10
2023-04-08T23:02:09.703Z,18.67
2023-04-08T23:04:36.890Z,20.80
2023-04-08T23:07:04.209Z,18.30
2023-04-08T23:09:31.383Z,19.20
2023-04-08T23:11:58.529Z,19.33
2023-04-08T23:14:25.972Z,20.33
2023-04-08T23:16:53.038Z,20.77
2023-04-08T23:19:20.156Z,18.73
2023-04-08T23:21:47.242Z,17.45
2023-04-08T23:24:14.483Z,17.58
2023-04-08T23:26:41.623Z,20.70
2023-04-08T23:29:08.674Z,17.63
2023-04-08T23:31:35.803Z,19.45
2023-04-08T23:34:02.927Z,19.58
2023-04-08T23:36:30.032Z,18.92
2023-04-08T23:38:57.100Z,18.88
2023-04-08T23:41:24.215Z,19.20
2023-04-08T23:43:52.968Z,19.50
2023-04-08T23:46:20.159Z,21.85
2023-04-08T23:48:47.711Z,19.15
2023-04-08T23:51:14.921Z,18.85
2023-04-08T23:53:42.014Z,22.45
2023-04-08T23:56:10.339Z,22.52
2023-04-08T23:58:37.543Z,20.80
